Twigg, Illinois
Current Conditions -  °F | °C
As of 1:55 PM on Wednesday 17 Dec 2014 (Local Time) from KHSB Reporting Station
Clear Clear  
Wind Chill:   Ceiling: Unl
Heat Index:   Visibility: 10mi
Dew Point: -3°   Wind: 3mph
Humidity: 66%   Direction: 260°W
Pressure: 30.28"   Gusts: NA
Location:  37.9948°N, 88.5401°W
Report Text: KHSB 171955Z AUTO 26003KT 10SM CLR 03/M03 A3028 RMK AO2 T00261031
Loading
Personal Weather Stations






























Interactive Weather Map New forecast layout! Learn more

10-Day Weather Forecast

Advertisements
Track Severe Weather on mobile